Terminal Aerodrome Forecast
Issued by NWS Jacksonville, FL

Home | Current Version | Previous Version | Text Only | Print | Product List | Glossary On
Versions: 1 2 3 4 5 6 7 8 9 10 11 12 13 14 15 16 17 18 19 20
729
FTUS42 KJAX 082347
TAFJAX
TAF
KJAX 082347Z 0900/0924 25015G25KT P6SM SCT040 BKN070
     FM090600 28013G23KT P6SM SCT050 BKN100
     FM091500 26019G29KT P6SM SCT050 BKN250=

USA.gov is the U.S. government's official web portal to all federal, state and local government web resources and services.